Time;durP1;ratioP1;P1;durP2;ratioP2;P2;SDS_P1;SDS_P2;PMS_P1;PMS_P2;Temp;Humidity;BMP_temperature;BMP_pressure;BME280_temperature;BME280_humidity;BME280_pressure;Samples;Min_cycle;Max_cycle;Signal;HPM_P1;HPM_P2
2021/03/15 00:02:05;;;;;;;6.05;4.55;;;3.10;99.90;;;;;;4998293;28;20026;-72
2021/03/15 00:04:31;;;;;;;11.63;5.22;;;3.10;99.90;;;;;;5010464;28;20022;-72
2021/03/15 00:06:56;;;;;;;8.50;5.05;;;3.20;99.90;;;;;;5010744;28;20480;-73
2021/03/15 00:09:22;;;;;;;6.43;4.40;;;3.10;99.90;;;;;;5010710;28;20042;-72
2021/03/15 00:11:48;;;;;;;8.70;4.57;;;3.10;99.90;;;;;;5010672;28;20030;-73
2021/03/15 00:14:13;;;;;;;6.45;5.05;;;3.00;99.90;;;;;;5013160;28;20109;-73
2021/03/15 00:16:39;;;;;;;5.38;4.38;;;2.80;99.90;;;;;;5015010;28;20723;-72
2021/03/15 00:19:05;;;;;;;5.07;4.00;;;2.70;99.90;;;;;;5015320;28;20022;-73
2021/03/15 00:21:30;;;;;;;8.75;5.07;;;2.60;99.90;;;;;;4992821;28;20030;-72
2021/03/15 00:23:56;;;;;;;8.35;4.82;;;2.50;99.90;;;;;;4990705;28;20034;-72
2021/03/15 00:26:22;;;;;;;9.05;5.53;;;2.50;99.90;;;;;;4990990;28;20058;-73
2021/03/15 00:28:47;;;;;;;5.43;4.93;;;2.50;99.90;;;;;;4990882;28;20072;-72
2021/03/15 00:31:13;;;;;;;8.75;4.80;;;2.50;99.90;;;;;;5009825;28;20029;-71
2021/03/15 00:33:39;;;;;;;6.75;4.90;;;2.40;99.90;;;;;;5013424;28;20052;-72
2021/03/15 00:36:05;;;;;;;7.93;4.80;;;2.40;99.90;;;;;;5028833;28;20036;-74
2021/03/15 00:38:30;;;;;;;7.28;5.10;;;2.40;99.90;;;;;;5013925;28;20054;-72
2021/03/15 00:40:56;;;;;;;10.75;5.25;;;2.40;99.90;;;;;;5013447;28;20058;-72
2021/03/15 00:43:22;;;;;;;11.27;5.07;;;2.50;99.90;;;;;;5013028;28;20402;-72
2021/03/15 00:45:47;;;;;;;9.07;4.72;;;2.60;99.90;;;;;;5013836;28;20022;-72
2021/03/15 00:48:13;;;;;;;9.40;4.93;;;2.60;99.90;;;;;;5014122;28;20022;-72
2021/03/15 00:50:40;;;;;;;8.10;4.72;;;2.70;99.90;;;;;;5013650;28;20392;-73
2021/03/15 00:53:06;;;;;;;6.85;4.45;;;2.70;99.90;;;;;;5011684;28;20109;-72
2021/03/15 00:55:33;;;;;;;6.47;3.67;;;2.80;99.90;;;;;;5013124;28;20028;-73
2021/03/15 00:57:58;;;;;;;6.88;4.30;;;2.90;99.90;;;;;;5013608;28;20049;-73
2021/03/15 01:00:30;;;;;;;10.25;3.80;;;2.80;99.90;;;;;;5012695;28;20046;-74
2021/03/15 01:02:56;;;;;;;4.13;3.63;;;2.80;99.90;;;;;;5012837;28;20044;-73
2021/03/15 01:05:27;;;;;;;16.50;4.63;;;2.80;99.90;;;;;;5012984;28;20030;-72
2021/03/15 01:07:52;;;;;;;6.90;4.72;;;2.80;99.90;;;;;;5013015;28;20076;-73
2021/03/15 01:10:21;;;;;;;6.22;4.20;;;2.80;99.90;;;;;;5013207;28;20124;-72
2021/03/15 01:12:47;;;;;;;6.63;4.00;;;2.90;99.90;;;;;;5012731;28;20034;-73
2021/03/15 01:15:14;;;;;;;6.70;4.28;;;2.90;99.90;;;;;;5012966;28;20101;-71
2021/03/15 01:17:40;;;;;;;7.43;4.50;;;3.00;99.90;;;;;;5012994;28;20025;-72
2021/03/15 01:20:07;;;;;;;9.40;4.13;;;3.00;99.90;;;;;;5012501;28;20030;-71
2021/03/15 01:22:33;;;;;;;4.70;3.53;;;3.00;99.90;;;;;;5012578;28;20034;-73
2021/03/15 01:24:58;;;;;;;5.97;3.70;;;3.10;99.90;;;;;;5012377;28;20028;-74
2021/03/15 01:27:24;;;;;;;7.53;3.70;;;3.10;99.90;;;;;;5013015;28;20109;-72
2021/03/15 01:29:50;;;;;;;4.10;3.70;;;3.20;99.90;;;;;;5012827;28;20476;-72
2021/03/15 01:32:16;;;;;;;5.05;3.60;;;3.30;99.90;;;;;;5012186;28;20037;-72
2021/03/15 01:34:41;;;;;;;4.53;3.03;;;3.20;99.90;;;;;;5012446;28;20460;-71
2021/03/15 01:37:07;;;;;;;7.20;3.40;;;3.20;99.90;;;;;;5012401;28;20108;-72
2021/03/15 01:39:32;;;;;;;5.88;3.47;;;3.20;99.90;;;;;;5012905;28;20103;-71
2021/03/15 01:41:59;;;;;;;3.67;3.08;;;3.10;99.90;;;;;;5012791;28;20029;-72
2021/03/15 01:44:25;;;;;;;9.95;3.88;;;3.10;99.90;;;;;;5011321;28;20026;-71
2021/03/15 01:46:51;;;;;;;4.78;3.40;;;3.10;99.90;;;;;;5012648;28;20374;-72
2021/03/15 01:49:17;;;;;;;8.95;3.65;;;3.10;99.90;;;;;;5012838;28;20045;-73
2021/03/15 01:51:43;;;;;;;6.57;4.15;;;3.00;99.90;;;;;;5012559;28;20104;-72
2021/03/15 01:54:10;;;;;;;7.60;4.00;;;3.00;99.90;;;;;;5012134;28;20084;-72
2021/03/15 01:56:37;;;;;;;7.60;4.28;;;2.90;99.90;;;;;;5012123;28;20137;-71
2021/03/15 01:59:03;;;;;;;4.53;3.65;;;3.00;99.90;;;;;;5007706;28;20072;-72
2021/03/15 02:01:29;;;;;;;9.25;4.20;;;3.00;99.90;;;;;;4993556;28;20034;-74
2021/03/15 02:03:55;;;;;;;7.82;4.25;;;3.10;99.90;;;;;;5010456;28;20432;-72
2021/03/15 02:06:21;;;;;;;6.68;4.45;;;3.10;99.90;;;;;;5012052;28;20033;-72
2021/03/15 02:08:47;;;;;;;6.75;4.22;;;3.10;99.90;;;;;;5012274;28;20026;-72
2021/03/15 02:11:26;;;;;;;7.95;5.20;;;3.20;99.90;;;;;;5013168;28;20113;-73
2021/03/15 02:14:13;;;;;;;10.27;5.28;;;3.20;99.90;;;;;;5011328;28;20056;-72
2021/03/15 02:17:07;;;;;;;6.88;3.97;;;3.20;99.90;;;;;;5027331;28;20029;-72
2021/03/15 02:20:12;;;;;;;6.65;4.43;;;3.10;99.90;;;;;;5008836;28;20160;-72
2021/03/15 02:23:04;;;;;;;4.32;3.88;;;3.00;99.90;;;;;;4976648;28;20092;-73
2021/03/15 02:25:51;;;;;;;8.73;4.85;;;3.00;99.90;;;;;;4992603;28;20476;-72
2021/03/15 02:28:48;;;;;;;9.25;4.45;;;2.90;99.90;;;;;;4992748;28;20030;-73
2021/03/15 02:31:13;;;;;;;5.05;3.92;;;2.90;99.90;;;;;;5012269;28;20629;-72
2021/03/15 02:33:53;;;;;;;7.18;3.70;;;2.80;99.90;;;;;;5011425;28;20037;-72
2021/03/15 02:36:22;;;;;;;10.07;4.03;;;2.70;99.90;;;;;;5012041;28;20438;-71
2021/03/15 02:38:49;;;;;;;9.13;4.57;;;2.60;99.90;;;;;;5012188;28;20412;-72
2021/03/15 02:41:18;;;;;;;10.18;4.93;;;2.60;99.90;;;;;;5011957;28;20492;-71
2021/03/15 02:43:49;;;;;;;9.95;5.75;;;2.60;99.90;;;;;;5011948;28;20444;-72
2021/03/15 02:46:18;;;;;;;9.98;5.50;;;2.70;99.90;;;;;;5011987;28;20029;-74
2021/03/15 02:48:45;;;;;;;10.18;6.10;;;2.80;99.90;;;;;;5012079;28;20543;-74
2021/03/15 02:51:12;;;;;;;12.27;5.95;;;2.90;99.90;;;;;;5012176;28;20040;-72
2021/03/15 02:53:41;;;;;;;18.10;6.38;;;2.90;99.90;;;;;;5011840;28;20026;-73
2021/03/15 02:56:18;;;;;;;9.73;5.03;;;3.00;99.90;;;;;;5011002;28;20041;-71
2021/03/15 02:58:45;;;;;;;6.63;5.00;;;3.00;99.90;;;;;;5012479;28;20614;-73
2021/03/15 03:01:12;;;;;;;10.02;4.60;;;3.10;99.90;;;;;;5011890;28;20030;-73
2021/03/15 03:03:40;;;;;;;8.38;4.97;;;3.10;99.90;;;;;;5011822;28;20017;-72
2021/03/15 03:06:08;;;;;;;8.82;5.50;;;3.30;99.90;;;;;;5012275;28;20042;-72
2021/03/15 03:08:35;;;;;;;11.35;5.03;;;3.30;99.90;;;;;;5012861;28;20029;-72
2021/03/15 03:11:01;;;;;;;7.45;4.60;;;3.30;99.90;;;;;;5012005;28;20342;-72
2021/03/15 03:13:27;;;;;;;8.88;4.15;;;3.30;99.90;;;;;;5011062;28;20030;-72
2021/03/15 03:15:57;;;;;;;10.57;4.78;;;3.20;99.90;;;;;;5012412;28;20033;-72
2021/03/15 03:18:24;;;;;;;7.00;4.18;;;3.30;99.90;;;;;;5012662;28;20111;-72
2021/03/15 03:20:57;;;;;;;6.55;3.25;;;3.30;99.90;;;;;;5012642;28;20037;-75
2021/03/15 03:23:30;;;;;;;8.85;3.70;;;3.10;99.90;;;;;;5012328;28;20096;-72
2021/03/15 03:25:57;;;;;;;10.10;4.30;;;3.10;99.90;;;;;;5012095;28;20120;-72
2021/03/15 03:28:27;;;;;;;8.70;4.10;;;3.00;99.90;;;;;;5011045;28;20112;-73
2021/03/15 03:30:56;;;;;;;9.20;4.00;;;3.00;99.90;;;;;;5031825;28;20028;-72
2021/03/15 03:33:22;;;;;;;5.32;3.63;;;3.00;99.90;;;;;;5047443;28;20103;-74
2021/03/15 03:35:48;;;;;;;10.85;4.25;;;3.00;99.90;;;;;;5031146;28;20407;-73
2021/03/15 03:38:16;;;;;;;9.25;4.07;;;2.90;99.90;;;;;;5031220;28;20034;-73
2021/03/15 03:40:42;;;;;;;9.60;4.10;;;3.00;99.90;;;;;;5031232;28;20048;-74
2021/03/15 03:43:07;;;;;;;8.68;4.32;;;3.10;99.90;;;;;;5039909;28;20476;-74
2021/03/15 03:45:33;;;;;;;12.45;4.70;;;3.00;99.90;;;;;;5050280;28;20105;-73
2021/03/15 03:47:59;;;;;;;10.02;4.18;;;3.00;99.90;;;;;;5047946;28;20025;-73
2021/03/15 03:50:27;;;;;;;11.35;4.97;;;3.10;99.90;;;;;;5042040;28;20551;-71
2021/03/15 03:52:57;;;;;;;9.23;4.47;;;3.00;99.90;;;;;;5041853;28;20104;-73
2021/03/15 03:55:30;;;;;;;10.55;4.63;;;3.00;99.90;;;;;;5036482;28;20113;-74
2021/03/15 03:57:57;;;;;;;13.77;5.07;;;3.00;99.90;;;;;;5031069;28;20029;-73
2021/03/15 04:00:23;;;;;;;7.80;5.07;;;3.00;99.90;;;;;;5004204;28;20385;-73
2021/03/15 04:03:06;;;;;;;12.60;5.78;;;3.00;99.90;;;;;;4990999;28;20046;-73
2021/03/15 04:05:32;;;;;;;9.73;4.65;;;3.10;99.90;;;;;;4991613;28;20018;-73
2021/03/15 04:08:05;;;;;;;11.07;4.78;;;3.10;99.90;;;;;;4994907;28;20108;-73
2021/03/15 04:10:31;;;;;;;12.13;5.38;;;3.20;99.90;;;;;;4994953;28;20037;-71
2021/03/15 04:13:04;;;;;;;8.85;4.70;;;3.20;99.90;;;;;;5009586;28;20034;-73
2021/03/15 04:15:31;;;;;;;6.68;4.38;;;3.10;99.90;;;;;;4994756;28;20547;-74
2021/03/15 04:17:58;;;;;;;10.27;4.93;;;3.10;99.90;;;;;;4995324;28;20026;-75
2021/03/15 04:20:30;;;;;;;8.73;4.70;;;3.10;99.90;;;;;;4995098;28;20160;-74
2021/03/15 04:22:59;;;;;;;10.35;4.90;;;3.20;99.90;;;;;;4994301;28;20035;-71
2021/03/15 04:25:27;;;;;;;12.05;4.60;;;3.20;99.90;;;;;;4994935;28;20579;-71
2021/03/15 04:27:54;;;;;;;8.93;5.22;;;3.20;99.90;;;;;;4995003;28;20030;-73
2021/03/15 04:30:21;;;;;;;12.65;4.68;;;3.20;99.90;;;;;;5009804;28;20022;-73
2021/03/15 04:32:52;;;;;;;9.30;5.38;;;3.20;99.90;;;;;;5014128;28;20029;-74
2021/03/15 04:35:30;;;;;;;11.17;5.20;;;3.30;99.90;;;;;;5014298;28;20034;-73
2021/03/15 04:37:58;;;;;;;10.13;5.28;;;3.30;99.90;;;;;;5014395;28;20034;-74
2021/03/15 04:40:25;;;;;;;7.35;4.57;;;3.30;99.90;;;;;;5014411;28;20106;-73
2021/03/15 04:42:52;;;;;;;11.32;5.18;;;3.30;99.90;;;;;;5029031;28;20088;-74
2021/03/15 04:45:18;;;;;;;8.38;4.50;;;3.40;99.90;;;;;;5014431;28;20033;-72
2021/03/15 04:47:45;;;;;;;9.77;4.70;;;3.40;99.90;;;;;;5014299;28;20026;-74
2021/03/15 04:50:12;;;;;;;9.00;5.13;;;3.50;99.90;;;;;;5014508;28;20030;-73
2021/03/15 04:52:39;;;;;;;9.50;5.72;;;3.60;99.90;;;;;;5015426;28;20029;-71
2021/03/15 04:55:09;;;;;;;12.50;5.63;;;3.50;99.90;;;;;;5020093;28;20160;-73
2021/03/15 04:57:37;;;;;;;10.10;4.78;;;3.50;99.90;;;;;;5022245;28;20030;-74
2021/03/15 05:00:07;;;;;;;7.93;4.00;;;3.50;99.90;;;;;;5012824;28;20481;-73
2021/03/15 05:02:34;;;;;;;12.55;4.63;;;3.50;99.90;;;;;;4994474;28;20030;-73
2021/03/15 05:05:01;;;;;;;7.07;4.20;;;3.60;99.90;;;;;;5009234;28;20382;-72
2021/03/15 05:07:29;;;;;;;7.53;3.45;;;3.60;99.90;;;;;;4993876;28;20487;-73
2021/03/15 05:09:56;;;;;;;6.10;3.63;;;3.60;99.90;;;;;;4994192;28;20031;-72
2021/03/15 05:12:22;;;;;;;7.30;3.47;;;3.60;99.90;;;;;;4993651;28;20041;-73
2021/03/15 05:14:49;;;;;;;8.57;4.30;;;3.50;99.90;;;;;;4993485;28;20504;-72
2021/03/15 05:17:15;;;;;;;8.15;4.07;;;3.50;99.90;;;;;;4997053;28;20030;-71
2021/03/15 05:19:42;;;;;;;11.20;3.88;;;3.50;99.90;;;;;;4993345;28;20030;-72
2021/03/15 05:22:09;;;;;;;6.63;3.55;;;3.50;99.90;;;;;;4993521;28;20113;-73
2021/03/15 05:24:38;;;;;;;6.70;2.67;;;3.50;99.90;;;;;;4993253;28;20060;-73
2021/03/15 05:27:05;;;;;;;11.18;3.63;;;3.60;99.90;;;;;;4993790;28;20022;-74
2021/03/15 05:29:34;;;;;;;9.38;3.13;;;3.50;99.90;;;;;;5002108;28;20026;-73
2021/03/15 05:32:01;;;;;;;3.08;2.40;;;3.50;99.90;;;;;;5013105;28;20026;-73
2021/03/15 05:34:30;;;;;;;4.35;2.72;;;3.60;99.90;;;;;;5012346;28;20087;-74
2021/03/15 05:36:58;;;;;;;6.85;2.42;;;3.60;99.90;;;;;;5012726;28;20030;-72
2021/03/15 05:39:24;;;;;;;5.18;2.50;;;3.60;99.90;;;;;;5013284;28;20048;-75
2021/03/15 05:42:32;;;;;;;4.30;2.42;;;3.60;99.90;;;;;;5029028;28;20050;-73
2021/03/15 05:45:20;;;;;;;3.67;2.50;;;3.60;99.90;;;;;;4978343;28;20130;-72
2021/03/15 05:48:17;;;;;;;6.30;3.15;;;3.60;99.90;;;;;;5005617;28;20088;-75
2021/03/15 05:50:49;;;;;;;5.15;2.70;;;3.60;99.90;;;;;;5010629;28;20021;-72
2021/03/15 05:53:39;;;;;;;4.45;2.90;;;3.60;99.90;;;;;;5017172;28;20026;-74
2021/03/15 05:56:10;;;;;;;6.70;3.75;;;3.80;99.90;;;;;;5020092;28;20053;-71
2021/03/15 05:58:51;;;;;;;6.55;3.65;;;3.80;99.90;;;;;;5013171;28;20608;-75
2021/03/15 06:01:44;;;;;;;5.80;3.00;;;3.80;99.90;;;;;;5013891;28;20029;-71
2021/03/15 06:04:21;;;;;;;;;;;3.90;99.90;;;;;;5022057;28;20029;-71
2021/03/15 06:06:49;;;;;;;8.98;3.40;;;3.70;99.90;;;;;;5021343;28;19912;-72
2021/03/15 06:09:20;;;;;;;8.75;3.10;;;3.80;99.90;;;;;;5012439;28;20034;-75
2021/03/15 06:11:49;;;;;;;7.93;2.95;;;3.90;99.90;;;;;;5011886;28;20609;-76
2021/03/15 06:14:16;;;;;;;5.22;2.70;;;3.90;99.90;;;;;;5012478;28;20484;-73
2021/03/15 06:16:42;;;;;;;7.50;3.10;;;3.90;99.90;;;;;;5013075;28;20034;-77
2021/03/15 06:19:09;;;;;;;7.97;3.28;;;3.90;99.90;;;;;;5019300;28;20022;-76
2021/03/15 06:21:38;;;;;;;5.30;3.25;;;3.90;99.90;;;;;;5013635;28;20069;-77
2021/03/15 06:24:04;;;;;;;8.13;2.95;;;3.90;99.90;;;;;;5011523;28;20459;-77
2021/03/15 06:26:30;;;;;;;4.95;2.85;;;3.80;99.90;;;;;;5034702;28;20021;-74
2021/03/15 06:29:00;;;;;;;5.30;2.90;;;3.90;99.90;;;;;;5030349;28;20037;-76
2021/03/15 06:31:29;;;;;;;4.30;2.58;;;3.90;99.90;;;;;;5015689;28;20437;-76
2021/03/15 06:33:55;;;;;;;4.78;2.78;;;3.90;99.90;;;;;;5014093;28;20038;-75
2021/03/15 06:36:22;;;;;;;6.45;3.60;;;3.90;99.90;;;;;;5019731;28;20026;-75
2021/03/15 06:38:48;;;;;;;3.13;2.20;;;3.80;99.90;;;;;;5017491;28;20776;-76
2021/03/15 06:41:16;;;;;;;4.95;3.10;;;3.80;99.90;;;;;;5010859;28;20030;-72
2021/03/15 06:43:41;;;;;;;4.10;3.03;;;3.70;99.90;;;;;;5010757;28;20022;-71
2021/03/15 06:46:09;;;;;;;4.18;3.10;;;3.80;99.90;;;;;;5026194;28;20033;-71
2021/03/15 06:48:35;;;;;;;5.72;2.83;;;3.90;99.90;;;;;;5011357;28;20105;-72
2021/03/15 06:51:00;;;;;;;10.77;5.75;;;3.90;99.90;;;;;;5010163;28;20109;-71
2021/03/15 06:53:39;;;;;;;10.02;6.05;;;3.80;99.90;;;;;;5009972;28;20030;-68
2021/03/15 06:56:20;;;;;;;8.43;5.22;;;4.20;99.90;;;;;;5009758;28;20026;-71
2021/03/15 06:58:53;;;;;;;24.13;11.20;;;4.20;99.90;;;;;;5011070;28;20025;-72
2021/03/15 07:01:29;;;;;;;37.58;20.15;;;4.30;99.90;;;;;;5013477;28;20022;-73
2021/03/15 07:04:08;;;;;;;16.05;10.25;;;4.40;99.90;;;;;;5011746;28;20048;-72
2021/03/15 07:06:45;;;;;;;7.72;4.55;;;4.50;99.90;;;;;;5010553;28;20028;-73
2021/03/15 07:09:15;;;;;;;4.28;3.65;;;4.60;99.90;;;;;;5026154;28;20049;-73
2021/03/15 07:11:41;;;;;;;4.70;2.90;;;4.50;99.90;;;;;;5025860;28;20053;-71
2021/03/15 07:14:24;;;;;;;6.35;3.38;;;4.50;99.90;;;;;;5010090;28;20022;-72
2021/03/15 07:16:59;;;;;;;6.68;4.75;;;4.60;99.90;;;;;;5026008;28;20116;-73
2021/03/15 07:19:25;;;;;;;3.92;2.25;;;4.90;99.90;;;;;;5010560;28;20571;-72
2021/03/15 07:21:51;;;;;;;4.85;3.70;;;5.00;99.90;;;;;;4976186;28;627099;-70
2021/03/15 07:24:17;;;;;;;5.90;3.30;;;5.10;99.90;;;;;;5015817;28;20036;-72
2021/03/15 07:26:45;;;;;;;4.43;2.80;;;5.20;99.90;;;;;;5011223;28;20045;-70
2021/03/15 07:29:12;;;;;;;3.90;2.50;;;5.40;99.90;;;;;;5011046;28;20512;-72
2021/03/15 07:31:39;;;;;;;2.78;2.58;;;5.60;99.90;;;;;;5011041;28;20102;-70
2021/03/15 07:34:04;;;;;;;1.45;1.35;;;5.50;99.90;;;;;;5010536;28;20113;-73
2021/03/15 07:36:33;;;;;;;3.17;2.08;;;5.50;99.90;;;;;;5011588;28;20117;-71
2021/03/15 07:39:06;;;;;;;6.32;5.75;;;5.00;99.90;;;;;;5010617;28;20076;-71
2021/03/15 07:41:37;;;;;;;2.10;1.95;;;4.80;99.90;;;;;;5010118;28;20046;-70
2021/03/15 07:44:20;;;;;;;3.85;2.17;;;4.70;99.90;;;;;;5008715;28;20436;-71
2021/03/15 07:46:46;;;;;;;3.15;2.03;;;4.70;99.90;;;;;;4995413;28;20033;-70
2021/03/15 07:49:23;;;;;;;1.90;1.80;;;4.60;99.90;;;;;;4995339;28;20022;-71
2021/03/15 07:51:57;;;;;;;4.15;3.85;;;4.50;99.90;;;;;;4995334;28;20096;-73
2021/03/15 07:54:33;;;;;;;2.65;2.25;;;4.60;99.90;;;;;;5004540;28;20049;-72
2021/03/15 07:57:14;;;;;;;4.55;2.75;;;4.60;99.90;;;;;;5014830;28;20022;-71
2021/03/15 07:59:42;;;;;;;8.77;4.03;;;4.60;99.90;;;;;;5011046;28;20057;-71
2021/03/15 08:02:14;;;;;;;4.63;4.13;;;4.60;99.90;;;;;;4995360;28;20572;-73
2021/03/15 08:04:40;;;;;;;2.60;2.40;;;4.60;99.90;;;;;;5010907;28;20021;-72
2021/03/15 08:07:06;;;;;;;2.70;1.75;;;4.60;99.90;;;;;;5001780;28;20034;-72
2021/03/15 08:09:31;;;;;;;6.03;3.17;;;4.70;99.90;;;;;;5015777;28;20061;-72
2021/03/15 08:11:58;;;;;;;1.80;1.70;;;4.80;99.90;;;;;;5013961;28;20710;-71
2021/03/15 08:14:26;;;;;;;4.75;2.83;;;4.70;99.90;;;;;;5013568;28;20117;-73
2021/03/15 08:16:55;;;;;;;5.45;2.45;;;4.90;99.90;;;;;;5013257;28;20026;-71
2021/03/15 08:19:23;;;;;;;1.65;1.13;;;5.00;99.90;;;;;;5014603;28;20026;-72
2021/03/15 08:21:49;;;;;;;1.73;0.95;;;5.10;99.90;;;;;;5008177;28;20077;-70
2021/03/15 08:24:16;;;;;;;2.83;1.00;;;4.80;99.90;;;;;;5011885;28;20026;-70
2021/03/15 08:26:45;;;;;;;1.58;1.10;;;4.70;99.90;;;;;;5001319;28;20495;-71
2021/03/15 08:29:14;;;;;;;1.63;0.95;;;4.80;99.90;;;;;;5014900;28;20037;-70
2021/03/15 08:31:46;;;;;;;2.45;1.77;;;5.10;99.90;;;;;;5014011;28;20022;-70
2021/03/15 08:34:13;;;;;;;1.83;1.27;;;5.20;99.90;;;;;;5013921;28;20030;-72
2021/03/15 08:36:43;;;;;;;1.42;0.80;;;5.40;99.90;;;;;;5016686;28;20037;-69
2021/03/15 08:39:31;;;;;;;1.50;0.80;;;5.50;99.90;;;;;;5014284;28;20033;-72
2021/03/15 08:42:20;;;;;;;0.93;0.60;;;5.70;99.90;;;;;;5013086;28;20079;-73
2021/03/15 08:44:48;;;;;;;2.33;1.17;;;5.70;99.90;;;;;;5013989;28;20125;-71
2021/03/15 08:47:48;;;;;;;1.30;0.60;;;5.90;99.90;;;;;;5015804;28;20510;-73
2021/03/15 08:50:32;;;;;;;0.90;0.73;;;5.40;99.90;;;;;;5018828;28;20599;-73
2021/03/15 08:52:58;;;;;;;0.95;0.90;;;5.20;99.90;;;;;;5013374;28;20058;-71
2021/03/15 08:55:42;;;;;;;0.77;0.77;;;5.10;99.90;;;;;;5013908;28;20058;-73
2021/03/15 08:58:41;;;;;;;0.90;0.85;;;5.10;99.90;;;;;;5012799;28;20358;-73
2021/03/15 09:01:11;;;;;;;7.65;4.82;;;5.10;99.90;;;;;;5002262;28;20019;-73
2021/03/15 09:03:46;;;;;;;9.95;4.20;;;5.20;99.90;;;;;;5026226;28;20049;-73
2021/03/15 09:06:12;;;;;;;1.70;1.15;;;5.30;99.90;;;;;;5029168;28;20053;-73
2021/03/15 09:08:56;;;;;;;4.82;4.18;;;5.60;99.90;;;;;;5014460;28;20469;-73
2021/03/15 09:11:34;;;;;;;5.00;1.95;;;5.70;99.90;;;;;;5013984;28;20033;-73
2021/03/15 09:14:15;;;;;;;12.50;10.68;;;5.70;99.90;;;;;;5012465;28;20030;-73
2021/03/15 09:16:42;;;;;;;9.73;7.13;;;5.90;99.90;;;;;;5013141;28;20057;-71
2021/03/15 09:19:25;;;;;;;3.42;1.48;;;5.80;99.90;;;;;;5012724;28;20037;-73
2021/03/15 09:22:04;;;;;;;1.92;1.10;;;5.80;99.90;;;;;;5012561;28;20030;-74
2021/03/15 09:24:34;;;;;;;4.50;2.55;;;5.70;99.90;;;;;;5012471;28;20076;-72
2021/03/15 09:27:02;;;;;;;6.82;1.65;;;5.70;99.90;;;;;;5012803;28;20021;-71
2021/03/15 09:29:30;;;;;;;2.92;2.60;;;5.70;99.90;;;;;;5012823;28;20030;-72
2021/03/15 09:32:00;;;;;;;1.67;1.10;;;5.70;99.90;;;;;;5013016;28;20037;-70
2021/03/15 09:34:27;;;;;;;0.60;0.60;;;5.70;99.90;;;;;;5012460;28;20026;-72
2021/03/15 09:37:00;;;;;;;1.00;0.95;;;5.90;99.90;;;;;;4995461;28;20096;-71
2021/03/15 09:39:29;;;;;;;1.35;0.50;;;6.00;99.90;;;;;;4993689;28;20628;-71
2021/03/15 09:41:55;;;;;;;1.77;1.67;;;5.90;99.90;;;;;;5026926;28;20044;-72
2021/03/15 09:44:29;;;;;;;4.20;1.50;;;5.90;99.90;;;;;;5031931;28;20048;-72
2021/03/15 09:46:55;;;;;;;2.03;1.20;;;6.10;99.90;;;;;;5032510;28;20499;-72
2021/03/15 09:49:41;;;;;;;1.50;0.88;;;6.20;99.90;;;;;;5032348;28;20034;-72
2021/03/15 09:52:23;;;;;;;2.78;1.70;;;6.10;99.90;;;;;;5022227;28;20021;-71
2021/03/15 09:54:50;;;;;;;;;;;6.10;99.90;;;;;;5025178;28;20078;-70
2021/03/15 09:57:17;;;;;;;9.77;6.55;;;6.10;99.90;;;;;;5026384;28;19910;-72
2021/03/15 09:59:44;;;;;;;4.95;3.22;;;6.20;99.90;;;;;;5020129;28;20080;-72
2021/03/15 10:02:10;;;;;;;4.20;1.58;;;6.40;99.90;;;;;;5045313;28;20033;-72
2021/03/15 10:04:37;;;;;;;8.38;5.03;;;6.30;99.90;;;;;;5033039;28;20040;-72
2021/03/15 10:07:07;;;;;;;7.13;2.80;;;6.30;99.90;;;;;;5035124;28;20045;-71
2021/03/15 10:09:38;;;;;;;15.18;8.30;;;6.40;99.90;;;;;;5031799;28;20010;-72
2021/03/15 10:12:05;;;;;;;6.68;1.77;;;6.60;99.90;;;;;;5014255;28;20052;-72
2021/03/15 10:14:30;;;;;;;6.05;4.50;;;6.60;99.90;;;;;;5013646;28;20030;-71
2021/03/15 10:17:03;;;;;;;3.58;1.40;;;6.70;99.90;;;;;;5013808;28;20472;-72
2021/03/15 10:19:30;;;;;;;6.70;1.77;;;6.80;99.90;;;;;;5016357;28;20389;-72
2021/03/15 10:22:19;;;;;;;2.20;1.20;;;6.90;99.90;;;;;;5008157;28;20014;-73
2021/03/15 10:24:48;;;;;;;1.90;1.42;;;6.90;99.90;;;;;;4991990;28;20076;-73
2021/03/15 10:27:27;;;;;;;6.97;3.10;;;6.80;99.90;;;;;;5007449;28;20030;-70
2021/03/15 10:30:12;;;;;;;14.05;2.15;;;6.80;99.90;;;;;;4992410;28;20048;-74
2021/03/15 10:32:41;;;;;;;6.50;4.20;;;7.00;99.90;;;;;;4991613;28;20512;-72
2021/03/15 10:35:08;;;;;;;9.35;6.68;;;7.00;99.90;;;;;;4992602;28;20029;-73
2021/03/15 10:37:37;;;;;;;4.75;0.82;;;7.10;99.90;;;;;;4992253;28;20609;-73
2021/03/15 10:40:06;;;;;;;1.52;0.90;;;7.00;99.90;;;;;;4992555;28;20022;-72
2021/03/15 10:42:34;;;;;;;0.50;0.50;;;7.10;99.90;;;;;;5011240;28;20400;-70
2021/03/15 10:45:00;;;;;;;2.97;2.10;;;7.20;99.90;;;;;;5010640;28;20018;-71
2021/03/15 10:47:36;;;;;;;1.35;0.73;;;7.30;99.90;;;;;;5011891;28;20041;-74
2021/03/15 10:50:22;;;;;;;4.82;1.95;;;7.40;99.90;;;;;;5013166;28;20054;-73
2021/03/15 10:52:48;;;;;;;2.70;1.02;;;7.50;99.90;;;;;;5011434;28;20030;-73
2021/03/15 10:55:32;;;;;;;0.80;0.75;;;7.80;99.90;;;;;;5003370;28;20026;-73
2021/03/15 10:58:00;;;;;;;3.33;1.65;;;7.70;99.90;;;;;;5008179;28;20058;-73
2021/03/15 11:00:35;;;;;;;4.53;0.80;;;7.50;99.90;;;;;;5006795;28;20018;-73
2021/03/15 11:03:01;;;;;;;1.00;1.00;;;7.50;99.90;;;;;;4996192;28;20025;-71
2021/03/15 11:05:27;;;;;;;1.30;1.20;;;7.70;99.90;;;;;;5009970;28;20397;-73
2021/03/15 11:07:53;;;;;;;3.45;2.33;;;7.70;99.90;;;;;;4997977;28;20113;-73
2021/03/15 11:10:25;;;;;;;1.50;1.40;;;7.40;99.90;;;;;;5010576;28;20575;-72
2021/03/15 11:12:54;;;;;;;4.43;1.52;;;7.40;99.90;;;;;;5012389;28;20030;-71
2021/03/15 11:15:38;;;;;;;1.38;1.27;;;7.50;99.90;;;;;;4995895;28;20022;-72
2021/03/15 11:18:20;;;;;;;3.33;1.60;;;7.50;99.90;;;;;;4992729;28;20026;-68
2021/03/15 11:20:50;;;;;;;4.63;2.50;;;7.70;99.90;;;;;;4992783;28;20026;-68
2021/03/15 11:23:36;;;;;;;2.75;1.80;;;8.50;99.90;;;;;;4992219;28;20555;-71
2021/03/15 11:26:16;;;;;;;2.17;1.73;;;8.30;99.90;;;;;;4992240;28;20408;-69
2021/03/15 11:28:54;;;;;;;1.50;1.40;;;8.10;99.90;;;;;;4993663;28;20025;-70
2021/03/15 11:31:27;;;;;;;4.88;1.63;;;7.60;99.90;;;;;;4998651;28;20029;-71
2021/03/15 11:34:00;;;;;;;5.88;2.10;;;7.70;99.90;;;;;;5010365;28;20046;-71
2021/03/15 11:36:28;;;;;;;4.43;1.90;;;7.60;99.90;;;;;;5039362;28;20052;-71
2021/03/15 11:39:07;;;;;;;6.78;1.70;;;7.50;99.90;;;;;;5030627;28;20018;-70
2021/03/15 11:41:38;;;;;;;1.95;1.30;;;7.10;99.90;;;;;;5027668;28;20026;-72
2021/03/15 11:44:04;;;;;;;2.45;1.10;;;7.00;99.90;;;;;;5029052;28;20032;-72
2021/03/15 11:46:30;;;;;;;1.77;1.08;;;6.80;99.90;;;;;;5016362;28;20034;-71
2021/03/15 11:48:55;;;;;;;3.05;2.00;;;6.90;99.90;;;;;;5034324;28;20078;-70
2021/03/15 11:51:21;;;;;;;2.75;1.20;;;6.60;99.90;;;;;;5034338;28;20025;-71
2021/03/15 11:53:47;;;;;;;6.38;1.83;;;6.70;99.90;;;;;;5028428;28;20025;-74
2021/03/15 11:56:14;;;;;;;1.85;1.27;;;6.80;99.90;;;;;;5013289;28;20022;-72
2021/03/15 11:58:40;;;;;;;4.00;0.80;;;7.00;99.90;;;;;;5029473;28;20026;-71
2021/03/15 12:01:06;;;;;;;5.95;4.07;;;7.30;99.90;;;;;;5029988;28;20082;-71
2021/03/15 12:03:32;;;;;;;7.80;2.80;;;7.60;99.90;;;;;;5016160;28;20022;-73
2021/03/15 12:05:59;;;;;;;1.40;1.10;;;8.20;99.90;;;;;;5012595;28;20072;-72
2021/03/15 12:08:25;;;;;;;3.80;1.70;;;8.60;99.90;;;;;;5012327;28;20045;-72
2021/03/15 12:10:51;;;;;;;0.65;0.65;;;8.70;99.90;;;;;;5013466;28;20030;-72
2021/03/15 12:13:17;;;;;;;1.42;1.00;;;8.40;99.90;;;;;;5019375;28;20040;-73
2021/03/15 12:15:43;;;;;;;1.20;1.10;;;8.70;99.90;;;;;;5019988;28;20100;-71
2021/03/15 12:18:09;;;;;;;2.13;1.50;;;9.20;99.90;;;;;;5017100;28;20034;-74
2021/03/15 12:20:36;;;;;;;0.90;0.90;;;9.70;99.90;;;;;;5013183;28;20394;-73
2021/03/15 12:23:03;;;;;;;3.13;2.85;;;10.40;99.90;;;;;;5011992;28;20432;-71
2021/03/15 12:25:36;;;;;;;2.85;1.02;;;10.50;99.90;;;;;;5013788;28;20033;-74
2021/03/15 12:28:07;;;;;;;2.80;2.60;;;10.40;99.90;;;;;;5014151;28;20026;-74
2021/03/15 12:30:33;;;;;;;0.70;0.70;;;10.10;99.90;;;;;;5017279;28;20443;-73
2021/03/15 12:32:59;;;;;;;2.35;1.10;;;9.20;99.90;;;;;;5022779;28;20033;-74
2021/03/15 12:35:25;;;;;;;0.95;0.95;;;9.40;99.90;;;;;;5026611;28;20037;-71
2021/03/15 12:37:51;;;;;;;2.80;1.10;;;9.40;99.90;;;;;;5022490;28;20119;-70
2021/03/15 12:40:18;;;;;;;1.98;1.75;;;9.30;99.90;;;;;;5023972;28;20017;-70
2021/03/15 12:42:44;;;;;;;2.58;1.13;;;9.40;99.90;;;;;;5017262;28;20036;-74
2021/03/15 12:45:10;;;;;;;2.25;0.90;;;9.60;99.90;;;;;;5024299;28;20018;-75
2021/03/15 12:47:36;;;;;;;3.35;1.38;;;9.50;99.90;;;;;;5021123;28;20026;-75
2021/03/15 12:50:03;;;;;;;1.58;1.48;;;9.20;99.90;;;;;;5023137;28;20021;-74
2021/03/15 12:52:29;;;;;;;2.55;1.90;;;9.10;99.90;;;;;;5015130;28;20028;-67
2021/03/15 12:54:56;;;;;;;2.50;2.30;;;8.70;99.90;;;;;;5017152;28;20022;-68
2021/03/15 12:57:22;;;;;;;14.63;10.10;;;8.50;99.90;;;;;;5016829;28;20026;-77
2021/03/15 12:59:47;;;;;;;2.28;1.48;;;8.30;99.90;;;;;;5022450;28;20113;-77
2021/03/15 13:02:16;;;;;;;1.83;1.17;;;8.20;99.90;;;;;;5029812;28;20101;-76
2021/03/15 13:04:45;;;;;;;3.80;3.40;;;8.30;99.90;;;;;;5028443;28;20045;-74
2021/03/15 13:07:11;;;;;;;6.07;5.03;;;8.20;99.90;;;;;;5027466;28;20082;-73
2021/03/15 13:09:40;;;;;;;3.60;1.70;;;8.40;99.90;;;;;;5034451;28;20052;-73
2021/03/15 13:12:07;;;;;;;0.93;0.93;;;8.80;99.90;;;;;;5025053;28;20109;-74